TimeCST,TemperatureF,Dew PointF,Humidity,Sea Level PressureIn,VisibilityMPH,Wind Direction,Wind SpeedMPH,Gust SpeedMPH,PrecipitationIn,Events,Conditions,WindDirDegrees,DateUTC
12:54 AM,1.0,-6.0,72,30.34,10.0,WNW,4.6,-,N/A,,Overcast,300,2014-02-06 06:54:00
1:54 AM,-0.0,-6.0,76,30.33,10.0,West,3.5,-,N/A,,Overcast,280,2014-02-06 07:54:00
2:54 AM,-0.9,-7.1,75,30.31,10.0,WNW,4.6,-,N/A,,Scattered Clouds,290,2014-02-06 08:54:00
3:54 AM,-2.0,-8.0,76,30.30,10.0,West,3.5,-,N/A,,Mostly Cloudy,270,2014-02-06 09:54:00
4:54 AM,-4.0,-9.9,76,30.30,10.0,WSW,3.5,-,N/A,,Scattered Clouds,250,2014-02-06 10:54:00
5:54 AM,-2.9,-9.9,72,30.28,10.0,West,4.6,-,N/A,,Mostly Cloudy,280,2014-02-06 11:54:00
6:54 AM,-4.0,-11.0,72,30.27,10.0,West,3.5,-,N/A,,Clear,280,2014-02-06 12:54:00
7:54 AM,-4.0,-11.0,72,30.27,10.0,WNW,5.8,-,N/A,,Mostly Cloudy,290,2014-02-06 13:54:00
8:54 AM,-2.9,-11.0,68,30.26,10.0,WNW,9.2,-,N/A,,Clear,290,2014-02-06 14:54:00
9:54 AM,-0.9,-11.0,62,30.25,10.0,WNW,8.1,-,N/A,,Partly Cloudy,290,2014-02-06 15:54:00
10:54 AM,3.0,-9.9,55,30.23,10.0,West,9.2,-,N/A,,Clear,270,2014-02-06 16:54:00
11:54 AM,6.1,-9.0,50,30.20,10.0,West,12.7,17.3,0.00,,Clear,260,2014-02-06 17:54:00
12:54 PM,8.1,-8.0,48,30.17,10.0,WSW,10.4,-,0.00,,Clear,250,2014-02-06 18:54:00
1:54 PM,10.0,-8.0,44,30.16,10.0,West,10.4,-,0.00,,Clear,260,2014-02-06 19:54:00
2:54 PM,10.0,-7.1,46,30.14,10.0,WSW,10.4,-,N/A,,Clear,240,2014-02-06 20:54:00
3:54 PM,10.9,-7.1,44,30.14,10.0,WSW,12.7,17.3,N/A,,Clear,250,2014-02-06 21:54:00
4:54 PM,8.1,-8.0,48,30.13,10.0,WSW,11.5,17.3,N/A,,Clear,240,2014-02-06 22:54:00
5:54 PM,6.1,-8.0,53,30.14,10.0,West,5.8,-,N/A,,Clear,260,2014-02-06 23:54:00
6:54 PM,3.9,-9.0,55,30.14,10.0,West,9.2,-,N/A,,Clear,260,2014-02-07 00:54:00
7:54 PM,1.9,-9.9,58,30.15,10.0,West,6.9,-,N/A,,Clear,270,2014-02-07 01:54:00
8:54 PM,-0.0,-11.9,57,30.16,10.0,West,11.5,23.0,N/A,,Clear,270,2014-02-07 02:54:00
9:54 PM,-2.0,-11.9,63,30.16,10.0,West,11.5,17.3,N/A,,Clear,270,2014-02-07 03:54:00
10:54 PM,-2.9,-13.0,62,30.14,10.0,Variable,5.8,-,N/A,,Clear,0,2014-02-07 04:54:00
11:54 PM,-4.0,-13.0,65,30.14,10.0,WSW,5.8,-,N/A,,Clear,250,2014-02-07 05:54:00